createdAt,value
2023-03-18T00:00:35.000Z,8.3
2023-03-18T00:01:41.000Z,8.7
2023-03-18T00:02:47.000Z,7.7
2023-03-18T00:03:53.000Z,7.7
2023-03-18T00:06:05.000Z,8
2023-03-18T00:07:11.000Z,7
2023-03-18T00:08:17.000Z,8
2023-03-18T00:09:23.000Z,8
2023-03-18T00:10:29.000Z,7.7
2023-03-18T00:11:35.000Z,8.3
2023-03-18T00:12:41.000Z,7.4
2023-03-18T00:13:47.000Z,7.7
2023-03-18T00:14:53.000Z,7.7
2023-03-18T00:15:59.000Z,7.4
2023-03-18T00:17:05.000Z,7
2023-03-18T00:18:10.000Z,8.3
2023-03-18T00:19:16.000Z,8
2023-03-18T00:20:21.000Z,7
2023-03-18T00:21:28.000Z,7.7
2023-03-18T00:22:34.000Z,7.4
2023-03-18T00:23:40.000Z,7.7
2023-03-18T00:24:46.000Z,7.4
2023-03-18T00:25:52.000Z,8
2023-03-18T00:26:58.000Z,8.3
2023-03-18T00:28:04.000Z,7
2023-03-18T00:29:10.000Z,8.7
2023-03-18T00:30:15.000Z,8.7
2023-03-18T00:31:21.000Z,8
2023-03-18T00:32:26.000Z,8.3
2023-03-18T00:33:32.000Z,7.7
2023-03-18T00:34:38.000Z,7.7
2023-03-18T00:35:45.000Z,7.4
2023-03-18T00:36:51.000Z,8
2023-03-18T00:37:57.000Z,7.7
2023-03-18T00:39:03.000Z,8.7
2023-03-18T00:40:09.000Z,9
2023-03-18T00:41:15.000Z,8
2023-03-18T00:42:21.000Z,7
2023-03-18T00:43:27.000Z,7.7
2023-03-18T00:44:33.000Z,7.7
2023-03-18T00:45:39.000Z,7.4
2023-03-18T00:46:44.000Z,6.4
2023-03-18T00:47:50.000Z,8
2023-03-18T00:50:03.000Z,7.7
2023-03-18T00:51:09.000Z,7.4
2023-03-18T00:52:15.000Z,8.3
2023-03-18T00:53:21.000Z,7.7
2023-03-18T00:54:27.000Z,7.7
2023-03-18T00:55:33.000Z,7.7
2023-03-18T00:56:39.000Z,8
2023-03-18T00:57:45.000Z,7.4
2023-03-18T00:58:51.000Z,7.4
2023-03-18T01:01:03.000Z,7.7
2023-03-18T01:02:08.000Z,8.3
2023-03-18T01:03:14.000Z,7.7
2023-03-18T01:04:21.000Z,8.7
2023-03-18T01:05:27.000Z,7.4
2023-03-18T01:06:33.000Z,8
2023-03-18T01:07:38.000Z,8.7
2023-03-18T01:08:44.000Z,8.3
2023-03-18T01:09:50.000Z,7.7
2023-03-18T01:10:56.000Z,7.7
2023-03-18T01:12:02.000Z,7
2023-03-18T01:13:08.000Z,6.7
2023-03-18T01:14:14.000Z,7.4
2023-03-18T01:15:20.000Z,8
2023-03-18T01:16:26.000Z,8.3
2023-03-18T01:17:33.000Z,8
2023-03-18T01:18:39.000Z,8.3
2023-03-18T01:19:45.000Z,8
2023-03-18T01:20:51.000Z,7.7
2023-03-18T01:21:56.000Z,7
2023-03-18T01:23:02.000Z,8
2023-03-18T01:24:08.000Z,7.4
2023-03-18T01:25:14.000Z,8
2023-03-18T01:26:20.000Z,8.3
2023-03-18T01:27:26.000Z,8.3
2023-03-18T01:28:32.000Z,7.4
2023-03-18T01:29:38.000Z,7.4
2023-03-18T01:30:44.000Z,8
2023-03-18T01:31:50.000Z,7.4
2023-03-18T01:34:03.000Z,7.7
2023-03-18T01:35:09.000Z,7.7
2023-03-18T01:36:15.000Z,8
2023-03-18T01:37:20.000Z,8.3
2023-03-18T01:38:26.000Z,7.4
2023-03-18T01:39:32.000Z,7.7
2023-03-18T01:40:38.000Z,7.4
2023-03-18T01:41:44.000Z,7.4
2023-03-18T01:42:50.000Z,7.4
2023-03-18T01:45:02.000Z,8
2023-03-18T01:46:09.000Z,8
2023-03-18T01:47:15.000Z,7.4
2023-03-18T01:48:21.000Z,7.7
2023-03-18T01:49:27.000Z,8
2023-03-18T01:50:33.000Z,7.7
2023-03-18T01:51:38.000Z,8
2023-03-18T01:52:44.000Z,8
2023-03-18T01:53:50.000Z,7.7
2023-03-18T01:54:56.000Z,8
2023-03-18T01:56:02.000Z,7.7
2023-03-18T01:57:08.000Z,7.4
2023-03-18T01:58:14.000Z,8
2023-03-18T01:59:20.000Z,7.7
2023-03-18T02:00:26.000Z,8.7
2023-03-18T02:01:33.000Z,8
2023-03-18T02:02:39.000Z,7.4
2023-03-18T02:03:45.000Z,7.7
2023-03-18T02:04:51.000Z,7.4
2023-03-18T02:05:56.000Z,6.7
2023-03-18T02:07:02.000Z,7.4
2023-03-18T02:08:08.000Z,7.7
2023-03-18T02:09:14.000Z,8
2023-03-18T02:10:20.000Z,7.7
2023-03-18T02:11:26.000Z,7.4
2023-03-18T02:12:32.000Z,7.7
2023-03-18T02:13:38.000Z,8
2023-03-18T02:14:45.000Z,8.7
2023-03-18T02:15:51.000Z,8.7
2023-03-18T02:16:57.000Z,7.4
2023-03-18T02:18:03.000Z,7.4
2023-03-18T02:19:09.000Z,7.7
2023-03-18T02:20:14.000Z,8
2023-03-18T02:21:20.000Z,7
2023-03-18T02:22:26.000Z,7.4
2023-03-18T02:23:32.000Z,7.7
2023-03-18T02:24:38.000Z,7.4
2023-03-18T02:25:44.000Z,8
2023-03-18T02:26:50.000Z,8
2023-03-18T02:29:03.000Z,6.7
2023-03-18T02:30:09.000Z,8
2023-03-18T02:31:15.000Z,8.3
2023-03-18T02:32:21.000Z,7.4
2023-03-18T02:33:27.000Z,6.7
2023-03-18T02:34:32.000Z,8
2023-03-18T02:35:38.000Z,7.7
2023-03-18T02:40:02.000Z,7.7
2023-03-18T02:41:07.000Z,7.7
2023-03-18T02:42:14.000Z,7.4
2023-03-18T02:43:19.000Z,7.7
2023-03-18T02:44:25.000Z,8
2023-03-18T02:45:31.000Z,8
2023-03-18T02:46:37.000Z,7
2023-03-18T02:47:43.000Z,8.3
2023-03-18T02:48:49.000Z,8.3
2023-03-18T02:49:55.000Z,7.4
2023-03-18T02:51:01.000Z,7.7
2023-03-18T02:52:07.000Z,8.3
2023-03-18T02:53:12.000Z,8
2023-03-18T02:54:17.000Z,8.3
2023-03-18T02:55:23.000Z,8
2023-03-18T02:56:29.000Z,7.7
2023-03-18T02:57:36.000Z,8
2023-03-18T02:58:42.000Z,7.7
2023-03-18T02:59:48.000Z,7.7
2023-03-18T03:00:54.000Z,8
2023-03-18T03:02:00.000Z,7
2023-03-18T03:03:06.000Z,7.7
2023-03-18T03:04:12.000Z,8
2023-03-18T03:05:18.000Z,7.4
2023-03-18T03:06:24.000Z,7.4
2023-03-18T03:07:30.000Z,7.7
2023-03-18T03:08:35.000Z,7.7
2023-03-18T03:09:41.000Z,7.4
2023-03-18T03:10:47.000Z,7.4
2023-03-18T03:11:54.000Z,7
2023-03-18T03:13:00.000Z,7.4
2023-03-18T03:14:06.000Z,6.1
2023-03-18T03:15:12.000Z,7.7
2023-03-18T03:16:18.000Z,7
2023-03-18T03:17:24.000Z,8
2023-03-18T03:18:30.000Z,8
2023-03-18T03:19:36.000Z,7
2023-03-18T03:20:42.000Z,7.4
2023-03-18T03:21:48.000Z,8
2023-03-18T03:22:53.000Z,7.7
2023-03-18T03:23:59.000Z,7.4
2023-03-18T03:25:05.000Z,8
2023-03-18T03:26:12.000Z,8
2023-03-18T03:27:18.000Z,7.7
2023-03-18T03:28:24.000Z,7.7
2023-03-18T03:29:30.000Z,8
2023-03-18T03:30:36.000Z,7.4
2023-03-18T03:31:42.000Z,8
2023-03-18T03:32:48.000Z,7.7
2023-03-18T03:35:00.000Z,8
2023-03-18T03:36:06.000Z,7.7
2023-03-18T03:37:12.000Z,7.7
2023-03-18T03:38:17.000Z,7.4
2023-03-18T03:39:23.000Z,7.7
2023-03-18T03:40:29.000Z,7.7
2023-03-18T03:41:36.000Z,7.7
2023-03-18T03:42:42.000Z,8
2023-03-18T03:43:48.000Z,7
2023-03-18T03:44:54.000Z,7.7
2023-03-18T03:46:00.000Z,7.7
2023-03-18T03:47:06.000Z,8
2023-03-18T03:48:12.000Z,7.7
2023-03-18T03:49:18.000Z,7.4
2023-03-18T03:50:24.000Z,7.4
2023-03-18T03:51:30.000Z,7.7
2023-03-18T03:52:35.000Z,6.7
2023-03-18T03:53:42.000Z,7
2023-03-18T03:55:54.000Z,7.7
2023-03-18T03:57:00.000Z,7.4
2023-03-18T03:58:06.000Z,7.7
2023-03-18T03:59:12.000Z,8.7
2023-03-18T04:00:18.000Z,7.4
2023-03-18T04:01:24.000Z,7.4
2023-03-18T04:02:30.000Z,7.4
2023-03-18T04:03:36.000Z,7
2023-03-18T04:04:42.000Z,6.7
2023-03-18T04:05:48.000Z,6.4
2023-03-18T04:06:53.000Z,8.3
2023-03-18T04:07:59.000Z,7.4
2023-03-18T04:09:06.000Z,7
2023-03-18T04:10:12.000Z,8
2023-03-18T04:11:18.000Z,7.4
2023-03-18T04:12:24.000Z,7
2023-03-18T04:13:30.000Z,7.4
2023-03-18T04:14:36.000Z,8
2023-03-18T04:15:42.000Z,7.7
2023-03-18T04:16:48.000Z,7.4
2023-03-18T04:19:00.000Z,8.3
2023-03-18T04:20:06.000Z,7
2023-03-18T04:22:18.000Z,8
2023-03-18T04:23:24.000Z,8
2023-03-18T04:24:30.000Z,7
2023-03-18T04:25:36.000Z,7
2023-03-18T04:26:42.000Z,8
2023-03-18T04:27:48.000Z,7
2023-03-18T04:28:54.000Z,8
2023-03-18T04:30:00.000Z,7.4
2023-03-18T04:31:06.000Z,7.7
2023-03-18T04:32:12.000Z,7.7
2023-03-18T04:33:18.000Z,7
2023-03-18T04:34:24.000Z,7.7
2023-03-18T04:35:29.000Z,7.7
2023-03-18T04:36:36.000Z,7
2023-03-18T04:37:42.000Z,8.3
2023-03-18T04:38:48.000Z,8
2023-03-18T04:39:54.000Z,7.7
2023-03-18T04:41:00.000Z,7.4
2023-03-18T04:42:06.000Z,7.7
2023-03-18T04:43:12.000Z,7.4
2023-03-18T04:44:18.000Z,8
2023-03-18T04:45:24.000Z,7.4
2023-03-18T04:46:30.000Z,7.7
2023-03-18T04:47:36.000Z,7
2023-03-18T04:48:41.000Z,7
2023-03-18T04:49:47.000Z,7.4
2023-03-18T04:50:54.000Z,7.4
2023-03-18T04:52:00.000Z,7.7
2023-03-18T04:53:06.000Z,7
2023-03-18T04:54:12.000Z,7.4
2023-03-18T04:55:18.000Z,8.3
2023-03-18T04:56:24.000Z,7.4
2023-03-18T04:57:30.000Z,8
2023-03-18T04:58:36.000Z,7.7
2023-03-18T04:59:42.000Z,6.7
2023-03-18T05:00:48.000Z,8.7
2023-03-18T05:03:00.000Z,7.7
2023-03-18T05:04:05.000Z,7
2023-03-18T05:05:12.000Z,7
2023-03-18T05:06:18.000Z,7
2023-03-18T05:07:24.000Z,7.7
2023-03-18T05:08:30.000Z,8
2023-03-18T05:09:36.000Z,7
2023-03-18T05:10:42.000Z,7.7
2023-03-18T05:11:48.000Z,8.3
2023-03-18T05:12:54.000Z,8
2023-03-18T05:14:00.000Z,7.7
2023-03-18T05:15:06.000Z,7.7
2023-03-18T05:16:12.000Z,7.7
2023-03-18T05:17:18.000Z,7.4
2023-03-18T05:18:24.000Z,7.4
2023-03-18T05:19:31.000Z,7.7
2023-03-18T05:20:36.000Z,8.3
2023-03-18T05:21:42.000Z,8
2023-03-18T05:22:48.000Z,8
2023-03-18T05:23:54.000Z,8
2023-03-18T05:25:00.000Z,7.4
2023-03-18T05:26:06.000Z,7.7
2023-03-18T05:27:12.000Z,7
2023-03-18T05:28:18.000Z,7.4
2023-03-18T05:29:24.000Z,8
2023-03-18T05:30:30.000Z,7.7
2023-03-18T05:31:36.000Z,7.4
2023-03-18T05:32:43.000Z,6.7
2023-03-18T05:33:49.000Z,7
2023-03-18T05:34:55.000Z,7
2023-03-18T05:36:00.000Z,7.4
2023-03-18T05:37:06.000Z,7.4
2023-03-18T05:38:12.000Z,6.7
2023-03-18T05:39:18.000Z,7.4
2023-03-18T05:40:24.000Z,7.7
2023-03-18T05:41:30.000Z,7.4
2023-03-18T05:42:36.000Z,7.4
2023-03-18T05:43:42.000Z,7.4
2023-03-18T05:44:48.000Z,6.4
2023-03-18T05:47:01.000Z,7.7
2023-03-18T05:48:07.000Z,8
2023-03-18T05:49:13.000Z,7.4
2023-03-18T05:50:18.000Z,7.4
2023-03-18T05:51:24.000Z,8
2023-03-18T05:52:30.000Z,8.3
2023-03-18T05:53:36.000Z,7.7
2023-03-18T05:54:42.000Z,7.4
2023-03-18T05:55:48.000Z,8.7
2023-03-18T05:56:54.000Z,7.4
2023-03-18T05:58:00.000Z,7.7
2023-03-18T05:59:06.000Z,7.4
2023-03-18T06:00:13.000Z,7
2023-03-18T06:01:19.000Z,7
2023-03-18T06:02:25.000Z,7
2023-03-18T06:03:31.000Z,7.4
2023-03-18T06:04:36.000Z,7
2023-03-18T06:05:42.000Z,8
2023-03-18T06:06:48.000Z,8.3
2023-03-18T06:07:54.000Z,8
2023-03-18T06:09:00.000Z,7.4
2023-03-18T06:10:06.000Z,8
2023-03-18T06:11:12.000Z,7.4
2023-03-18T06:12:18.000Z,7.7
2023-03-18T06:13:24.000Z,7.4
2023-03-18T06:14:30.000Z,7.7
2023-03-18T06:16:43.000Z,7
2023-03-18T06:17:49.000Z,7.7
2023-03-18T06:18:54.000Z,8.3
2023-03-18T06:20:00.000Z,7.4
2023-03-18T06:21:06.000Z,7.4
2023-03-18T06:22:12.000Z,7.4
2023-03-18T06:23:18.000Z,7
2023-03-18T06:24:24.000Z,7
2023-03-18T06:25:30.000Z,7.7
2023-03-18T06:26:36.000Z,7.4
2023-03-18T06:27:42.000Z,7.4
2023-03-18T06:28:48.000Z,7.4
2023-03-18T06:31:01.000Z,7.4
2023-03-18T06:32:07.000Z,6.7
2023-03-18T06:33:12.000Z,7.4
2023-03-18T06:35:24.000Z,7.4
2023-03-18T06:36:29.000Z,7.7
2023-03-18T06:37:34.000Z,6.7
2023-03-18T06:38:40.000Z,8
2023-03-18T06:39:46.000Z,7.7
2023-03-18T06:40:52.000Z,7.7
2023-03-18T06:41:58.000Z,8
2023-03-18T06:43:05.000Z,7.7
2023-03-18T06:44:11.000Z,7.4
2023-03-18T06:45:17.000Z,7.4
2023-03-18T06:46:23.000Z,7.7
2023-03-18T06:47:29.000Z,7.7
2023-03-18T06:48:34.000Z,7
2023-03-18T06:49:39.000Z,7.4
2023-03-18T06:50:45.000Z,8
2023-03-18T06:51:51.000Z,7.4
2023-03-18T06:52:57.000Z,7.7
2023-03-18T06:54:03.000Z,7.4
2023-03-18T06:55:09.000Z,7.4
2023-03-18T06:56:16.000Z,7
2023-03-18T06:57:22.000Z,7
2023-03-18T06:58:28.000Z,7.4
2023-03-18T06:59:34.000Z,7.4
2023-03-18T07:00:40.000Z,7.4
2023-03-18T07:02:52.000Z,7
2023-03-18T07:03:57.000Z,7.7
2023-03-18T07:05:03.000Z,6.7
2023-03-18T07:06:09.000Z,7.7
2023-03-18T07:07:15.000Z,7.7
2023-03-18T07:08:21.000Z,6.4
2023-03-18T07:09:28.000Z,8.3
2023-03-18T07:10:34.000Z,7
2023-03-18T07:11:40.000Z,7.4
2023-03-18T07:12:46.000Z,7.4
2023-03-18T07:14:58.000Z,7
2023-03-18T07:16:04.000Z,6.4
2023-03-18T07:17:10.000Z,7.4
2023-03-18T07:18:15.000Z,7
2023-03-18T07:19:21.000Z,7
2023-03-18T07:20:27.000Z,7.4
2023-03-18T07:21:33.000Z,7.4
2023-03-18T07:22:39.000Z,7.4
2023-03-18T07:23:46.000Z,7.4
2023-03-18T07:24:52.000Z,7.7
2023-03-18T07:25:58.000Z,6.4
2023-03-18T07:27:04.000Z,7.7
2023-03-18T07:28:10.000Z,7
2023-03-18T07:29:16.000Z,6.7
2023-03-18T07:30:22.000Z,7.7
2023-03-18T07:32:34.000Z,7.7
2023-03-18T07:33:39.000Z,7.4
2023-03-18T07:34:45.000Z,7.4
2023-03-18T07:36:57.000Z,7.4
2023-03-18T07:38:03.000Z,7.7
2023-03-18T07:39:08.000Z,7
2023-03-18T07:40:14.000Z,7
2023-03-18T07:41:20.000Z,7.4
2023-03-18T07:42:26.000Z,6.1
2023-03-18T07:43:32.000Z,7
2023-03-18T07:44:38.000Z,6.7
2023-03-18T07:45:44.000Z,7.4
2023-03-18T07:46:50.000Z,7
2023-03-18T07:47:56.000Z,7.4
2023-03-18T07:49:02.000Z,7.7
2023-03-18T07:50:07.000Z,7
2023-03-18T07:51:12.940Z,7
2023-03-18T07:52:19.000Z,7
2023-03-18T07:53:25.000Z,7
2023-03-18T07:54:31.000Z,7
2023-03-18T07:55:37.000Z,8
2023-03-18T07:56:43.000Z,7.4
2023-03-18T07:57:49.000Z,7.7
2023-03-18T07:58:55.000Z,7
2023-03-18T08:00:01.000Z,7.7
2023-03-18T08:02:13.000Z,6.7
2023-03-18T08:03:19.000Z,7.7
2023-03-18T08:04:25.000Z,7
2023-03-18T08:05:30.000Z,7.4
2023-03-18T08:06:36.000Z,7.4
2023-03-18T08:07:43.000Z,8
2023-03-18T08:09:55.000Z,8
2023-03-18T08:11:01.000Z,7
2023-03-18T08:12:06.000Z,7
2023-03-18T08:13:11.000Z,7.4
2023-03-18T08:14:17.000Z,7
2023-03-18T08:15:23.000Z,7.7
2023-03-18T08:16:29.000Z,7
2023-03-18T08:17:35.000Z,7.7
2023-03-18T08:18:41.000Z,7
2023-03-18T08:19:47.000Z,7.4
2023-03-18T08:20:53.000Z,7.4
2023-03-18T08:21:59.000Z,8.3
2023-03-18T08:23:06.000Z,7.4
2023-03-18T08:24:11.000Z,7
2023-03-18T08:25:16.000Z,6.7
2023-03-18T08:26:22.000Z,7.7
2023-03-18T08:27:28.000Z,7
2023-03-18T08:28:34.000Z,7.4
2023-03-18T08:29:39.000Z,7
2023-03-18T08:31:51.000Z,7.4
2023-03-18T08:32:57.000Z,7.7
2023-03-18T08:34:03.000Z,8
2023-03-18T08:35:09.000Z,7
2023-03-18T08:36:16.000Z,7
2023-03-18T08:37:22.000Z,7.4
2023-03-18T08:38:28.000Z,7.4
2023-03-18T08:40:40.000Z,7.4
2023-03-18T08:42:51.000Z,7.7
2023-03-18T08:43:56.000Z,7
2023-03-18T08:45:01.000Z,7
2023-03-18T08:46:07.000Z,7.4
2023-03-18T08:47:13.000Z,7.4
2023-03-18T08:48:20.000Z,6.7
2023-03-18T08:49:26.000Z,7.4
2023-03-18T08:50:32.000Z,7
2023-03-18T08:51:38.000Z,7
2023-03-18T08:54:56.000Z,7
2023-03-18T08:56:02.000Z,7.4
2023-03-18T08:57:08.000Z,7.4
2023-03-18T08:58:13.000Z,7.4
2023-03-18T08:59:18.000Z,7.4
2023-03-18T09:00:24.000Z,7
2023-03-18T09:01:31.000Z,6.7
2023-03-18T09:02:37.000Z,7
2023-03-18T09:04:49.000Z,7.7
2023-03-18T09:05:55.000Z,7.7
2023-03-18T09:07:01.000Z,7.4
2023-03-18T09:08:07.000Z,6.7
2023-03-18T09:09:13.000Z,7.7
2023-03-18T09:10:19.000Z,7.7
2023-03-18T09:11:25.000Z,7
2023-03-18T09:12:31.000Z,7.7
2023-03-18T09:14:42.000Z,7.4
2023-03-18T09:15:48.000Z,7.4
2023-03-18T09:16:55.000Z,7.4
2023-03-18T09:18:01.000Z,7.4
2023-03-18T09:19:07.000Z,7.4
2023-03-18T09:20:13.000Z,7.4
2023-03-18T09:21:19.000Z,8
2023-03-18T09:22:25.000Z,7
2023-03-18T09:23:31.000Z,7
2023-03-18T09:24:37.000Z,7
2023-03-18T09:26:49.000Z,7.4
2023-03-18T09:27:54.000Z,8.3
2023-03-18T09:29:00.000Z,8
2023-03-18T09:30:07.000Z,6.7
2023-03-18T09:31:13.000Z,7.4
2023-03-18T09:32:19.000Z,7.4
2023-03-18T09:33:25.000Z,8.3
2023-03-18T09:34:31.000Z,8
2023-03-18T09:35:37.000Z,8.3
2023-03-18T09:36:43.000Z,7.7
2023-03-18T09:37:48.000Z,7.4
2023-03-18T09:38:53.000Z,7.4
2023-03-18T09:39:59.000Z,7.4
2023-03-18T09:41:05.000Z,8
2023-03-18T09:42:11.000Z,6.7
2023-03-18T09:43:18.000Z,7.4
2023-03-18T09:44:24.000Z,7.4
2023-03-18T09:45:30.000Z,7.7
2023-03-18T09:46:36.000Z,7
2023-03-18T09:47:42.000Z,8.3
2023-03-18T09:48:48.000Z,8
2023-03-18T09:49:53.000Z,7.7
2023-03-18T09:50:58.000Z,7.7
2023-03-18T09:52:04.000Z,7.4
2023-03-18T09:53:10.000Z,7
2023-03-18T09:54:16.000Z,8
2023-03-18T09:55:22.000Z,7.7
2023-03-18T09:56:29.000Z,7.4
2023-03-18T09:57:35.000Z,7.7
2023-03-18T09:58:41.000Z,7.7
2023-03-18T09:59:47.000Z,7.4
2023-03-18T10:00:53.000Z,8
2023-03-18T10:01:59.000Z,7.7
2023-03-18T10:03:05.000Z,7.7
2023-03-18T10:04:11.000Z,7
2023-03-18T10:05:16.000Z,7.4
2023-03-18T10:06:22.000Z,8.3
2023-03-18T10:08:34.000Z,7.7
2023-03-18T10:09:40.000Z,7.7
2023-03-18T10:10:46.000Z,7.7
2023-03-18T10:11:53.000Z,8
2023-03-18T10:12:59.000Z,7.7
2023-03-18T10:14:05.000Z,7.7
2023-03-18T10:15:11.000Z,8
2023-03-18T10:16:17.000Z,7
2023-03-18T10:17:23.000Z,8
2023-03-18T10:18:29.000Z,8
2023-03-18T10:19:34.000Z,7.4
2023-03-18T10:21:46.000Z,8
2023-03-18T10:22:52.000Z,7.7
2023-03-18T10:23:58.000Z,8
2023-03-18T10:25:05.000Z,8
2023-03-18T10:26:11.000Z,7.4
2023-03-18T10:27:17.000Z,8
2023-03-18T10:28:23.000Z,8.7
2023-03-18T10:29:29.000Z,8
2023-03-18T10:30:35.000Z,7.4
2023-03-18T10:32:47.000Z,8.3
2023-03-18T10:33:52.000Z,8
2023-03-18T10:34:58.000Z,7.4
2023-03-18T10:36:04.000Z,7.7
2023-03-18T10:37:10.000Z,7.4
2023-03-18T10:38:16.000Z,8
2023-03-18T10:39:23.000Z,8
2023-03-18T10:40:29.000Z,7.7
2023-03-18T10:41:35.000Z,8
2023-03-18T10:42:41.000Z,7.7
2023-03-18T10:43:47.000Z,7.7
2023-03-18T10:44:53.000Z,8.3
2023-03-18T10:45:59.000Z,7.7
2023-03-18T10:47:05.000Z,7.4
2023-03-18T10:48:10.000Z,7.7
2023-03-18T10:50:22.000Z,8
2023-03-18T10:51:28.000Z,8.3
2023-03-18T10:52:34.000Z,7.7
2023-03-18T10:54:47.000Z,7.7
2023-03-18T10:55:52.000Z,7.7
2023-03-18T10:56:57.000Z,7
2023-03-18T10:58:03.000Z,7.7
2023-03-18T10:59:09.000Z,8.3
2023-03-18T11:00:15.000Z,7.4
2023-03-18T11:01:21.000Z,8.3
2023-03-18T11:03:33.000Z,8.3
2023-03-18T11:04:39.000Z,7.7
2023-03-18T11:05:45.000Z,8
2023-03-18T11:06:51.000Z,8
2023-03-18T11:07:58.000Z,7.7
2023-03-18T11:09:04.000Z,8
2023-03-18T11:10:10.000Z,7.7
2023-03-18T11:11:15.000Z,8
2023-03-18T11:12:21.000Z,8
2023-03-18T11:13:27.000Z,7
2023-03-18T11:14:33.000Z,7.7
2023-03-18T11:16:45.000Z,7.4
2023-03-18T11:17:50.000Z,7.7
2023-03-18T11:18:56.000Z,7.7
2023-03-18T11:20:01.000Z,7.4
2023-03-18T11:21:08.000Z,8
2023-03-18T11:22:14.000Z,8.3
2023-03-18T11:23:20.000Z,7.7
2023-03-18T11:24:26.000Z,8.3
2023-03-18T11:25:32.000Z,8.7
2023-03-18T11:27:44.000Z,8
2023-03-18T11:28:50.000Z,7.7
2023-03-18T11:29:56.000Z,7.7
2023-03-18T11:31:02.000Z,8
2023-03-18T11:32:08.000Z,9
2023-03-18T11:33:14.000Z,8.3
2023-03-18T11:34:19.000Z,9.3
2023-03-18T11:35:25.000Z,7.7
2023-03-18T11:36:32.000Z,8.7
2023-03-18T11:38:44.000Z,8
2023-03-18T11:39:50.000Z,9
2023-03-18T11:40:56.000Z,8.3
2023-03-18T11:42:02.000Z,8
2023-03-18T11:43:08.000Z,9
2023-03-18T11:44:14.000Z,8
2023-03-18T11:45:20.000Z,7.7
2023-03-18T11:46:26.000Z,6.7
2023-03-18T11:47:32.000Z,8
2023-03-18T11:49:45.000Z,8.7
2023-03-18T11:50:50.000Z,8.3
2023-03-18T11:51:56.000Z,8.3
2023-03-18T11:53:02.000Z,8
2023-03-18T11:54:08.000Z,8.3
2023-03-18T11:55:14.000Z,8.3
2023-03-18T11:56:20.000Z,8
2023-03-18T11:57:26.000Z,8.7
2023-03-18T11:58:32.000Z,8
2023-03-18T11:59:38.000Z,8.7
2023-03-18T12:00:44.000Z,8.7
2023-03-18T12:01:49.000Z,8.7
2023-03-18T12:02:54.000Z,8.7
2023-03-18T12:04:00.000Z,8
2023-03-18T12:05:07.000Z,9
2023-03-18T12:06:13.000Z,7.7
2023-03-18T12:07:19.000Z,9
2023-03-18T12:08:25.000Z,8
2023-03-18T12:09:31.000Z,8
2023-03-18T12:10:37.000Z,8.3
2023-03-18T12:11:43.000Z,8.3
2023-03-18T12:12:49.000Z,8.7
2023-03-18T12:13:54.000Z,8.7
2023-03-18T12:14:59.000Z,8.3
2023-03-18T12:16:05.000Z,8.3
2023-03-18T12:17:12.000Z,8.3
2023-03-18T12:18:18.000Z,9
2023-03-18T12:19:24.000Z,9
2023-03-18T12:20:30.000Z,8
2023-03-18T12:22:42.000Z,8.3
2023-03-18T12:23:48.000Z,8.3
2023-03-18T12:24:54.000Z,8.3
2023-03-18T12:26:00.000Z,8.3
2023-03-18T12:27:06.000Z,8.3
2023-03-18T12:28:12.000Z,9
2023-03-18T12:29:17.000Z,9
2023-03-18T12:31:29.000Z,8.7
2023-03-18T12:32:35.000Z,9.6
2023-03-18T12:33:40.000Z,8
2023-03-18T12:34:46.000Z,8.7
2023-03-18T12:35:52.000Z,8.7
2023-03-18T12:36:58.000Z,8.7
2023-03-18T12:38:04.000Z,8.7
2023-03-18T12:39:10.000Z,9
2023-03-18T12:40:16.000Z,9.6
2023-03-18T12:41:22.000Z,9
2023-03-18T12:42:28.000Z,8.7
2023-03-18T12:44:41.000Z,9
2023-03-18T12:45:47.000Z,9.3
2023-03-18T12:46:53.000Z,9
2023-03-18T12:47:58.000Z,9.6
2023-03-18T12:49:04.000Z,8.7
2023-03-18T12:50:10.000Z,9
2023-03-18T12:51:16.000Z,9
2023-03-18T12:52:22.000Z,9.3
2023-03-18T12:53:28.000Z,9.3
2023-03-18T12:54:34.000Z,9
2023-03-18T12:55:40.000Z,9.3
2023-03-18T12:56:45.000Z,9
2023-03-18T12:57:50.000Z,9
2023-03-18T12:58:57.000Z,9
2023-03-18T13:00:03.000Z,9
2023-03-18T13:01:09.000Z,9.3
2023-03-18T13:02:15.000Z,9.6
2023-03-18T13:03:21.000Z,9.3
2023-03-18T13:04:27.000Z,10.3
2023-03-18T13:05:33.000Z,9.6
2023-03-18T13:06:39.000Z,9
2023-03-18T13:09:57.000Z,9.6
2023-03-18T13:11:03.000Z,9.3
2023-03-18T13:12:09.000Z,9.6
2023-03-18T13:13:14.000Z,9.3
2023-03-18T13:14:20.000Z,9
2023-03-18T13:15:26.000Z,9.9
2023-03-18T13:17:38.000Z,9.6
2023-03-18T13:18:44.000Z,9.3
2023-03-18T13:19:50.000Z,9.9
2023-03-18T13:20:56.000Z,9.3
2023-03-18T13:22:02.000Z,9
2023-03-18T13:24:14.000Z,9.3
2023-03-18T13:25:20.000Z,9.3
2023-03-18T13:26:25.000Z,9.3
2023-03-18T13:28:37.000Z,9.6
2023-03-18T13:29:43.000Z,9
2023-03-18T13:30:49.000Z,10.3
2023-03-18T13:31:55.000Z,8.3
2023-03-18T13:33:01.000Z,9.9
2023-03-18T13:34:07.000Z,9.3
2023-03-18T13:35:13.000Z,9.9
2023-03-18T13:36:19.000Z,9.6
2023-03-18T13:37:25.000Z,9.3
2023-03-18T13:39:37.000Z,9
2023-03-18T13:40:44.000Z,9.6
2023-03-18T13:41:49.000Z,9.6
2023-03-18T13:42:55.000Z,9.6
2023-03-18T13:44:01.000Z,9.3
2023-03-18T13:45:07.000Z,9.9
2023-03-18T13:46:13.000Z,9.6
2023-03-18T13:47:19.000Z,9.9
2023-03-18T13:48:25.000Z,9.6
2023-03-18T13:49:31.000Z,9.3
2023-03-18T13:50:37.000Z,9.6
2023-03-18T13:51:42.000Z,9.6
2023-03-18T13:52:47.000Z,9.3
2023-03-18T13:53:53.000Z,9.6
2023-03-18T13:55:00.000Z,9
2023-03-18T13:56:06.000Z,9.6
2023-03-18T13:57:12.000Z,9.3
2023-03-18T13:58:18.000Z,9.3
2023-03-18T13:59:24.000Z,10.3
2023-03-18T14:00:30.000Z,9.3
2023-03-18T14:01:36.000Z,9.9
2023-03-18T14:02:42.000Z,9
2023-03-18T14:03:47.000Z,10.3
2023-03-18T14:04:52.000Z,9.3
2023-03-18T14:05:58.000Z,9
2023-03-18T14:07:04.000Z,10.3
2023-03-18T14:08:11.000Z,9.9
2023-03-18T14:09:17.000Z,10.6
2023-03-18T14:10:23.000Z,10.6
2023-03-18T14:11:29.000Z,9.9
2023-03-18T14:12:35.000Z,10.6
2023-03-18T14:13:41.000Z,9.9
2023-03-18T14:14:47.000Z,9.3
2023-03-18T14:15:53.000Z,9
2023-03-18T14:16:59.000Z,10.6
2023-03-18T14:18:05.000Z,9.9
2023-03-18T14:19:10.000Z,10.6
2023-03-18T14:20:16.000Z,9.9
2023-03-18T14:21:22.000Z,10.3
2023-03-18T14:24:41.000Z,9.9
2023-03-18T14:25:46.000Z,10.6
2023-03-18T14:26:52.000Z,10.3
2023-03-18T14:27:57.000Z,9.9
2023-03-18T14:29:03.000Z,9.9
2023-03-18T14:30:09.000Z,10.6
2023-03-18T14:31:15.000Z,9.9
2023-03-18T14:32:21.000Z,9.9
2023-03-18T14:33:27.000Z,9.6
2023-03-18T14:34:33.000Z,8.7
2023-03-18T14:35:39.000Z,10.3
2023-03-18T14:36:46.000Z,10.3
2023-03-18T14:37:51.000Z,9.6
2023-03-18T14:38:56.000Z,10.9
2023-03-18T14:40:02.000Z,10.3
2023-03-18T14:41:08.000Z,9.9
2023-03-18T14:42:14.000Z,9.6
2023-03-18T14:43:20.000Z,9.9
2023-03-18T14:45:32.000Z,9.3
2023-03-18T14:46:38.000Z,10.3
2023-03-18T14:47:44.000Z,10.6
2023-03-18T14:48:50.000Z,10.6
2023-03-18T14:49:56.000Z,10.9
2023-03-18T14:51:02.000Z,10.3
2023-03-18T14:52:09.000Z,10.6
2023-03-18T14:53:14.000Z,9.9
2023-03-18T14:54:20.000Z,9.6
2023-03-18T14:55:26.000Z,9.9
2023-03-18T14:56:32.000Z,9.9
2023-03-18T14:57:38.000Z,9.9
2023-03-18T14:58:44.000Z,10.9
2023-03-18T14:59:50.000Z,9.6
2023-03-18T15:00:56.000Z,10.6
2023-03-18T15:02:02.000Z,10.3
2023-03-18T15:03:08.000Z,9.9
2023-03-18T15:05:21.000Z,9.9
2023-03-18T15:07:33.000Z,10.6
2023-03-18T15:08:38.000Z,10.3
2023-03-18T15:11:55.000Z,9.6
2023-03-18T15:13:01.000Z,9.9
2023-03-18T15:14:07.000Z,10.6
2023-03-18T15:15:13.000Z,10.3
2023-03-18T15:16:19.000Z,10.9
2023-03-18T15:18:31.000Z,9.3
2023-03-18T15:19:38.000Z,9.9
2023-03-18T15:21:50.000Z,11.6
2023-03-18T15:22:56.000Z,10.3
2023-03-18T15:24:01.000Z,9.9
2023-03-18T15:25:06.000Z,9.6
2023-03-18T15:26:12.000Z,10.6
2023-03-18T15:27:17.000Z,9.9
2023-03-18T15:28:23.000Z,10.3
2023-03-18T15:29:29.000Z,9.9
2023-03-18T15:30:35.000Z,10.3
2023-03-18T15:31:42.000Z,10.6
2023-03-18T15:32:48.000Z,9.9
2023-03-18T15:33:54.000Z,10.6
2023-03-18T15:35:00.000Z,9.9
2023-03-18T15:36:06.000Z,10.9
2023-03-18T15:37:11.000Z,9.9
2023-03-18T15:38:16.000Z,10.3
2023-03-18T15:39:22.000Z,10.3
2023-03-18T15:40:28.000Z,10.6
2023-03-18T15:42:40.000Z,10.9
2023-03-18T15:43:46.000Z,10.3
2023-03-18T15:44:52.000Z,9.6
2023-03-18T15:45:58.000Z,10.6
2023-03-18T15:47:04.000Z,9.9
2023-03-18T15:48:11.000Z,9.6
2023-03-18T15:49:17.000Z,10.3
2023-03-18T15:52:35.000Z,10.3
2023-03-18T15:53:40.000Z,10.3
2023-03-18T15:54:45.000Z,10.9
2023-03-18T15:55:51.000Z,9.6
2023-03-18T15:56:57.000Z,11.2
2023-03-18T15:58:03.000Z,10.9
2023-03-18T15:59:09.000Z,10.9
2023-03-18T16:00:16.000Z,10.9
2023-03-18T16:01:22.000Z,10.3
2023-03-18T16:02:28.000Z,10.6
2023-03-18T16:03:34.000Z,9.9
2023-03-18T16:04:40.000Z,10.3
2023-03-18T16:05:45.000Z,10.3
2023-03-18T16:06:50.000Z,10.3
2023-03-18T16:07:56.000Z,10.3
2023-03-18T16:09:02.000Z,9.6
2023-03-18T16:10:08.000Z,10.9
2023-03-18T16:11:14.000Z,10.6
2023-03-18T16:13:27.000Z,9.6
2023-03-18T16:16:45.000Z,9.6
2023-03-18T16:17:51.000Z,10.9
2023-03-18T16:18:57.000Z,9.9
2023-03-18T16:20:03.000Z,10.6
2023-03-18T16:22:14.000Z,9.9
2023-03-18T16:24:25.000Z,11.2
2023-03-18T16:25:31.000Z,10.3
2023-03-18T16:26:37.000Z,10.6
2023-03-18T16:27:42.000Z,9.9
2023-03-18T16:28:48.000Z,10.6
2023-03-18T16:29:54.000Z,10.6
2023-03-18T16:31:00.000Z,10.9
2023-03-18T16:32:06.000Z,10.3
2023-03-18T16:34:18.000Z,10.6
2023-03-18T16:35:24.000Z,9.9
2023-03-18T16:36:30.000Z,10.6
2023-03-18T16:37:36.000Z,9.9
2023-03-18T16:38:42.000Z,9.9